Time;durP1;ratioP1;P1;durP2;ratioP2;P2;SDS_P1;SDS_P2;PMS_P1;PMS_P2;Temp;Humidity;BMP_temperature;BMP_pressure;BME280_temperature;BME280_humidity;BME280_pressure;Samples;Min_cycle;Max_cycle;Signal;HPM_P1;HPM_P2
2023/12/23 00:00:53;;;;;;;15.00;9.32;;;;;;;;;;10291241;28;20051;-59
2023/12/23 00:05:53;;;;;;;13.35;9.48;;;;;;;;;;10291221;28;20027;-59
2023/12/23 00:10:54;;;;;;;19.92;9.93;;;;;;;;;;10291690;28;20023;-58
2023/12/23 00:15:54;;;;;;;16.42;9.68;;;;;;;;;;10290589;28;20038;-58
2023/12/23 00:20:55;;;;;;;17.35;9.82;;;;;;;;;;10287775;28;20035;-58
2023/12/23 00:25:56;;;;;;;14.27;9.05;;;;;;;;;;10278869;28;20498;-58
2023/12/23 00:30:56;;;;;;;11.73;8.60;;;;;;;;;;10268727;28;20030;-59
2023/12/23 00:35:57;;;;;;;19.42;9.60;;;;;;;;;;10268842;28;20034;-58
2023/12/23 00:40:57;;;;;;;18.98;9.27;;;;;;;;;;10268921;28;20029;-59
2023/12/23 00:45:58;;;;;;;15.05;9.30;;;;;;;;;;10264443;28;20085;-59
2023/12/23 00:50:59;;;;;;;12.75;8.68;;;;;;;;;;10266715;28;20023;-59
2023/12/23 00:55:59;;;;;;;14.77;9.23;;;;;;;;;;10267180;28;20050;-60
2023/12/23 01:01:00;;;;;;;13.32;8.75;;;;;;;;;;10265697;28;20283;-59
2023/12/23 01:06:00;;;;;;;16.25;8.75;;;;;;;;;;10266703;28;20041;-59
2023/12/23 01:11:01;;;;;;;11.75;8.57;;;;;;;;;;10266021;28;20057;-59
2023/12/23 01:16:02;;;;;;;12.88;8.73;;;;;;;;;;10264899;28;20105;-59
2023/12/23 01:21:04;;;;;;;10.35;7.88;;;;;;;;;;10266121;28;20077;-58
2023/12/23 01:26:04;;;;;;;12.70;8.43;;;;;;;;;;10266588;28;20042;-58
2023/12/23 01:31:05;;;;;;;14.38;7.95;;;;;;;;;;10287451;28;20023;-58
2023/12/23 01:36:06;;;;;;;15.30;8.32;;;;;;;;;;10287438;28;20054;-59
2023/12/23 01:41:07;;;;;;;15.18;9.85;;;;;;;;;;10287844;28;20105;-59
2023/12/23 01:46:08;;;;;;;11.35;8.27;;;;;;;;;;10287796;28;20037;-59
2023/12/23 01:51:11;;;;;;;14.75;9.05;;;;;;;;;;10287617;28;20171;-59
2023/12/23 01:56:12;;;;;;;11.02;8.15;;;;;;;;;;10270380;28;20486;-58
2023/12/23 02:01:13;;;;;;;12.18;8.55;;;;;;;;;;10281745;23;20061;-67
2023/12/23 02:06:13;;;;;;;12.50;7.43;;;;;;;;;;10287112;28;20517;-66
2023/12/23 02:11:32;;;;;;;15.07;8.18;;;;;;;;;;10286674;28;20390;-65
2023/12/23 02:16:35;;;;;;;11.45;8.00;;;;;;;;;;10270772;28;20022;-66
2023/12/23 02:21:36;;;;;;;11.68;8.52;;;;;;;;;;10286264;28;20056;-66
2023/12/23 02:26:37;;;;;;;11.02;8.02;;;;;;;;;;10269190;28;20023;-66
2023/12/23 02:31:38;;;;;;;12.68;8.05;;;;;;;;;;10285919;28;20031;-67
2023/12/23 02:36:39;;;;;;;10.93;7.70;;;;;;;;;;10286037;28;20026;-66
2023/12/23 02:41:39;;;;;;;9.85;7.72;;;;;;;;;;10285421;28;20046;-66
2023/12/23 02:46:40;;;;;;;10.25;7.97;;;;;;;;;;10285843;28;20026;-68
2023/12/23 02:51:40;;;;;;;9.18;7.32;;;;;;;;;;10286184;28;20034;-68
2023/12/23 02:56:41;;;;;;;10.70;7.82;;;;;;;;;;10285679;28;20019;-68
2023/12/23 03:01:42;;;;;;;11.93;8.27;;;;;;;;;;10285266;28;20054;-69
2023/12/23 03:06:42;;;;;;;9.65;7.43;;;;;;;;;;10285777;28;20064;-68
2023/12/23 03:11:43;;;;;;;9.95;6.97;;;;;;;;;;10285561;28;20027;-74
2023/12/23 03:16:44;;;;;;;10.45;7.60;;;;;;;;;;10286062;28;20038;-69
2023/12/23 03:21:46;;;;;;;10.68;7.35;;;;;;;;;;10286906;28;20030;-68
2023/12/23 03:26:46;;;;;;;11.20;7.65;;;;;;;;;;10291315;28;20058;-66
2023/12/23 03:31:47;;;;;;;10.40;7.72;;;;;;;;;;10292481;28;20438;-69
2023/12/23 03:36:48;;;;;;;9.30;7.43;;;;;;;;;;10292456;28;20349;-69
2023/12/23 03:41:48;;;;;;;11.40;7.57;;;;;;;;;;10292632;28;20119;-67
2023/12/23 03:46:49;;;;;;;9.43;7.28;;;;;;;;;;10292444;28;20034;-69
2023/12/23 03:51:49;;;;;;;10.05;7.15;;;;;;;;;;10291994;28;20291;-67
2023/12/23 03:56:50;;;;;;;9.50;6.70;;;;;;;;;;10291855;28;20035;-67
2023/12/23 04:01:50;;;;;;;8.07;6.38;;;;;;;;;;10291585;28;20043;-69
2023/12/23 04:06:51;;;;;;;9.55;6.53;;;;;;;;;;10291290;28;20023;-68
2023/12/23 04:11:52;;;;;;;9.38;7.13;;;;;;;;;;10291284;28;20035;-69
2023/12/23 04:16:52;;;;;;;10.23;7.07;;;;;;;;;;10290853;28;20019;-68
2023/12/23 04:21:53;;;;;;;7.97;6.53;;;;;;;;;;10290699;28;20027;-67
2023/12/23 04:26:53;;;;;;;9.05;6.60;;;;;;;;;;10290525;28;20042;-67
2023/12/23 04:31:54;;;;;;;10.18;7.25;;;;;;;;;;10290058;28;20031;-67
2023/12/23 04:36:55;;;;;;;8.93;6.93;;;;;;;;;;10289887;28;20497;-67
2023/12/23 04:41:55;;;;;;;10.48;6.90;;;;;;;;;;10289695;28;20522;-66
2023/12/23 04:46:56;;;;;;;9.13;6.75;;;;;;;;;;10290384;28;20082;-66
2023/12/23 04:51:56;;;;;;;10.30;6.95;;;;;;;;;;10290069;28;20199;-72
2023/12/23 04:56:57;;;;;;;9.40;7.35;;;;;;;;;;10289709;28;20383;-68
2023/12/23 05:01:58;;;;;;;8.35;5.68;;;;;;;;;;10288825;28;20118;-71
2023/12/23 05:06:58;;;;;;;9.65;6.93;;;;;;;;;;10289190;28;20031;-69
2023/12/23 05:11:59;;;;;;;9.68;6.65;;;;;;;;;;10289368;28;20027;-68
2023/12/23 05:16:59;;;;;;;7.82;6.95;;;;;;;;;;10288733;28;20026;-70
2023/12/23 05:22:00;;;;;;;9.40;6.75;;;;;;;;;;10288397;28;20031;-69
2023/12/23 05:27:00;;;;;;;9.70;7.03;;;;;;;;;;10288195;28;20031;-69
2023/12/23 05:32:03;;;;;;;10.00;6.95;;;;;;;;;;10287752;28;20034;-69
2023/12/23 05:37:03;;;;;;;7.20;6.43;;;;;;;;;;10288007;28;20427;-69
2023/12/23 05:42:04;;;;;;;8.27;6.68;;;;;;;;;;10287577;28;20085;-69
2023/12/23 05:47:04;;;;;;;7.22;6.38;;;;;;;;;;10287112;28;20027;-68
2023/12/23 05:52:05;;;;;;;13.48;7.32;;;;;;;;;;10287348;28;20109;-67
2023/12/23 05:57:06;;;;;;;8.50;6.82;;;;;;;;;;10287191;28;20026;-68
2023/12/23 06:02:08;;;;;;;9.18;6.85;;;;;;;;;;10286725;28;20167;-67
2023/12/23 06:07:08;;;;;;;10.25;7.10;;;;;;;;;;10270068;28;20041;-66
2023/12/23 06:12:09;;;;;;;8.48;6.80;;;;;;;;;;10286486;28;20468;-66
2023/12/23 06:17:09;;;;;;;9.63;6.72;;;;;;;;;;10286866;28;20023;-70
2023/12/23 06:22:10;;;;;;;8.40;6.82;;;;;;;;;;10286677;28;20490;-70
2023/12/23 06:27:12;;;;;;;10.35;6.25;;;;;;;;;;10286673;28;20027;-70
2023/12/23 06:32:13;;;;;;;11.05;6.75;;;;;;;;;;10286721;28;20053;-68
2023/12/23 06:37:13;;;;;;;8.48;6.75;;;;;;;;;;10286795;28;20213;-71
2023/12/23 06:42:14;;;;;;;7.65;6.40;;;;;;;;;;10285990;28;20035;-72
2023/12/23 06:47:14;;;;;;;8.68;6.70;;;;;;;;;;10286104;28;20031;-76
2023/12/23 06:52:15;;;;;;;8.27;6.53;;;;;;;;;;10285160;28;20030;-74
2023/12/23 06:57:15;;;;;;;7.82;6.75;;;;;;;;;;10288510;28;20509;-70
2023/12/23 07:02:16;;;;;;;10.20;6.38;;;;;;;;;;10292847;28;20046;-71
2023/12/23 07:07:17;;;;;;;7.85;6.20;;;;;;;;;;10292874;28;20030;-67
2023/12/23 07:12:18;;;;;;;7.30;5.72;;;;;;;;;;10293197;28;20042;-69
2023/12/23 07:17:19;;;;;;;7.03;6.10;;;;;;;;;;10292996;28;20026;-69
2023/12/23 07:22:19;;;;;;;7.45;5.85;;;;;;;;;;10293931;28;20030;-70
2023/12/23 07:27:20;;;;;;;8.93;6.20;;;;;;;;;;10292177;28;20467;-72
2023/12/23 07:32:20;;;;;;;8.45;6.00;;;;;;;;;;10292327;28;20178;-67
2023/12/23 07:37:21;;;;;;;8.65;5.78;;;;;;;;;;10292367;28;20027;-69
2023/12/23 07:42:21;;;;;;;10.48;6.03;;;;;;;;;;10290852;28;20399;-62
2023/12/23 07:47:22;;;;;;;10.07;6.63;;;;;;;;;;10291129;28;20113;-67
2023/12/23 07:52:23;;;;;;;10.23;6.80;;;;;;;;;;10290547;28;20023;-65
2023/12/23 07:57:23;;;;;;;12.77;7.75;;;;;;;;;;10288296;28;20022;-64
2023/12/23 08:02:24;;;;;;;20.42;8.88;;;;;;;;;;10268039;28;20418;-64
2023/12/23 08:07:24;;;;;;;25.73;7.78;;;;;;;;;;10267221;28;20376;-65
2023/12/23 08:12:25;;;;;;;11.55;8.23;;;;;;;;;;10268734;28;20046;-63
2023/12/23 08:17:26;;;;;;;11.70;8.55;;;;;;;;;;10269377;28;20037;-63
2023/12/23 08:22:26;;;;;;;12.98;8.75;;;;;;;;;;10270173;28;20467;-63
2023/12/23 08:27:27;;;;;;;13.95;8.57;;;;;;;;;;10270510;28;20090;-67
2023/12/23 08:32:28;;;;;;;20.08;9.27;;;;;;;;;;10268182;28;20030;-64
2023/12/23 08:37:29;;;;;;;24.52;10.02;;;;;;;;;;10275212;28;20492;-64
2023/12/23 08:42:30;;;;;;;21.92;10.30;;;;;;;;;;10288686;28;20037;-68
2023/12/23 08:47:31;;;;;;;20.02;10.48;;;;;;;;;;10286101;28;20066;-66
2023/12/23 08:52:31;;;;;;;18.35;10.10;;;;;;;;;;10287281;28;20038;-66
2023/12/23 08:57:33;;;;;;;23.05;11.02;;;;;;;;;;10284569;28;20023;-65
2023/12/23 09:02:34;;;;;;;28.33;14.18;;;;;;;;;;10288390;28;20062;-66
2023/12/23 09:07:36;;;;;;;25.83;12.65;;;;;;;;;;10284758;28;20038;-65
2023/12/23 09:12:38;;;;;;;18.08;10.95;;;;;;;;;;10273097;28;20058;-61
2023/12/23 09:17:39;;;;;;;22.23;11.73;;;;;;;;;;10264891;28;20027;-64
2023/12/23 09:22:40;;;;;;;20.40;10.13;;;;;;;;;;10249680;28;20039;-61
2023/12/23 09:27:40;;;;;;;33.38;11.45;;;;;;;;;;10282507;28;20049;-62
2023/12/23 09:32:41;;;;;;;30.63;10.40;;;;;;;;;;10270888;28;20085;-63
2023/12/23 09:37:41;;;;;;;30.90;11.02;;;;;;;;;;10270349;28;20026;-62
2023/12/23 09:42:42;;;;;;;19.90;10.25;;;;;;;;;;10275781;28;20037;-62
2023/12/23 09:47:43;;;;;;;23.50;10.82;;;;;;;;;;10286203;28;20022;-62
2023/12/23 09:52:50;;;;;;;21.55;10.52;;;;;;;;;;10286905;28;20301;-62
2023/12/23 09:57:50;;;;;;;26.33;9.15;;;;;;;;;;10279841;28;20364;-61
2023/12/23 10:02:51;;;;;;;32.00;9.73;;;;;;;;;;10287057;28;20039;-62
2023/12/23 10:07:57;;;;;;;25.50;8.70;;;;;;;;;;10285754;28;20114;-62
2023/12/23 10:12:58;;;;;;;16.90;9.05;;;;;;;;;;10286353;28;20081;-62
2023/12/23 10:18:03;;;;;;;24.35;9.82;;;;;;;;;;10269875;28;20069;-61
2023/12/23 10:23:04;;;;;;;14.93;8.82;;;;;;;;;;10285830;28;20026;-64
2023/12/23 10:28:08;;;;;;;15.07;8.40;;;;;;;;;;10277425;28;20046;-65
2023/12/23 10:33:14;;;;;;;15.88;8.45;;;;;;;;;;10266541;28;20037;-64
2023/12/23 10:38:21;;;;;;;18.45;8.07;;;;;;;;;;10247771;28;20483;-69
2023/12/23 10:43:24;;;;;;;12.30;7.87;;;;;;;;;;10267309;28;20031;-64
2023/12/23 10:48:27;;;;;;;13.60;7.53;;;;;;;;;;10285282;28;20062;-70
2023/12/23 10:53:30;;;;;;;16.35;7.10;;;;;;;;;;10263192;28;20474;-69
2023/12/23 10:58:32;;;;;;;14.98;7.45;;;;;;;;;;10267083;28;20401;-65
2023/12/23 11:03:34;;;;;;;12.68;6.55;;;;;;;;;;10268088;28;20050;-66
2023/12/23 11:08:36;;;;;;;21.98;6.28;;;;;;;;;;10284305;28;20375;-66
2023/12/23 11:13:37;;;;;;;43.05;8.77;;;;;;;;;;10285402;28;20070;-66
2023/12/23 11:18:40;;;;;;;39.35;7.03;;;;;;;;;;10280277;28;20082;-67
2023/12/23 11:23:40;;;;;;;23.63;6.93;;;;;;;;;;10285764;28;20031;-68
2023/12/23 11:28:41;;;;;;;20.90;7.47;;;;;;;;;;10285142;28;20042;-68
2023/12/23 11:33:44;;;;;;;20.55;7.30;;;;;;;;;;10262712;28;20086;-66
2023/12/23 11:38:50;;;;;;;14.20;7.40;;;;;;;;;;10283228;28;20050;-65
2023/12/23 11:43:52;;;;;;;13.25;7.10;;;;;;;;;;10288303;28;20378;-66
2023/12/23 11:48:56;;;;;;;18.05;7.22;;;;;;;;;;10261507;28;20037;-65
2023/12/23 11:53:57;;;;;;;13.75;7.75;;;;;;;;;;10290940;28;20039;-64
2023/12/23 11:59:01;;;;;;;16.60;7.85;;;;;;;;;;10274942;28;20043;-66
2023/12/23 12:04:02;;;;;;;21.35;7.55;;;;;;;;;;10287638;28;20031;-66
2023/12/23 12:09:05;;;;;;;21.33;7.80;;;;;;;;;;10274673;28;20387;-66
2023/12/23 12:14:07;;;;;;;25.27;8.40;;;;;;;;;;10272951;28;20467;-65
2023/12/23 12:19:07;;;;;;;12.57;7.63;;;;;;;;;;10290974;28;20026;-65
2023/12/23 12:24:08;;;;;;;17.20;6.97;;;;;;;;;;10290004;28;20027;-64
2023/12/23 12:29:09;;;;;;;15.60;6.82;;;;;;;;;;10289243;28;20023;-63
2023/12/23 12:34:12;;;;;;;13.88;6.75;;;;;;;;;;10266115;28;20144;-64
2023/12/23 12:39:14;;;;;;;13.20;7.63;;;;;;;;;;10286688;28;20038;-63
2023/12/23 12:44:15;;;;;;;13.63;6.95;;;;;;;;;;10265857;28;20065;-63
2023/12/23 12:49:19;;;;;;;9.90;6.60;;;;;;;;;;10289494;28;20105;-63
2023/12/23 12:54:24;;;;;;;16.00;6.40;;;;;;;;;;10269570;28;20089;-63
2023/12/23 12:59:24;;;;;;;15.27;7.25;;;;;;;;;;10261617;28;20521;-63
2023/12/23 13:04:25;;;;;;;11.93;6.88;;;;;;;;;;10284210;28;20031;-63
2023/12/23 13:09:26;;;;;;;11.23;6.63;;;;;;;;;;10266583;28;20074;-63
2023/12/23 13:14:26;;;;;;;16.80;6.82;;;;;;;;;;10282487;28;20519;-63
2023/12/23 13:19:27;;;;;;;12.55;7.22;;;;;;;;;;10280302;28;20419;-63
2023/12/23 13:24:28;;;;;;;11.93;7.32;;;;;;;;;;10263151;28;20387;-62
2023/12/23 13:29:29;;;;;;;16.67;7.45;;;;;;;;;;10269328;28;20023;-62
2023/12/23 13:34:30;;;;;;;9.13;6.60;;;;;;;;;;10270907;28;20038;-63
2023/12/23 13:39:32;;;;;;;16.13;7.07;;;;;;;;;;10270543;28;20046;-63
2023/12/23 13:44:35;;;;;;;11.77;7.70;;;;;;;;;;10247343;28;20037;-62
2023/12/23 13:49:36;;;;;;;9.25;7.05;;;;;;;;;;10270956;28;20022;-64
2023/12/23 13:54:36;;;;;;;12.77;7.43;;;;;;;;;;10268503;28;20038;-62
2023/12/23 13:59:37;;;;;;;12.40;6.78;;;;;;;;;;10271501;28;20042;-63
2023/12/23 14:04:37;;;;;;;15.23;6.05;;;;;;;;;;10279161;28;20102;-63
2023/12/23 14:09:38;;;;;;;14.93;6.57;;;;;;;;;;10279611;28;20375;-63
2023/12/23 14:14:38;;;;;;;11.52;6.45;;;;;;;;;;10284218;28;20062;-62
2023/12/23 14:19:39;;;;;;;15.05;7.07;;;;;;;;;;10284984;28;20046;-63
2023/12/23 14:24:39;;;;;;;13.45;6.88;;;;;;;;;;10281276;28;20029;-62
2023/12/23 14:29:42;;;;;;;10.77;5.90;;;;;;;;;;10266436;28;20027;-63
2023/12/23 14:34:42;;;;;;;9.13;6.10;;;;;;;;;;10258944;28;20027;-63
2023/12/23 14:39:43;;;;;;;10.68;6.63;;;;;;;;;;10262214;28;20031;-63
2023/12/23 14:44:44;;;;;;;12.18;6.35;;;;;;;;;;10280205;28;20027;-63
2023/12/23 14:49:45;;;;;;;13.10;6.07;;;;;;;;;;10281418;28;20395;-62
2023/12/23 14:54:45;;;;;;;8.32;5.70;;;;;;;;;;10280700;28;20438;-62
2023/12/23 14:59:46;;;;;;;14.45;6.18;;;;;;;;;;10279806;28;20118;-63
2023/12/23 15:04:46;;;;;;;9.00;6.00;;;;;;;;;;10285654;28;20085;-61
2023/12/23 15:09:48;;;;;;;9.40;5.72;;;;;;;;;;10278942;28;20097;-64
2023/12/23 15:14:50;;;;;;;11.73;6.25;;;;;;;;;;10282648;28;20029;-63
2023/12/23 15:19:51;;;;;;;17.35;5.75;;;;;;;;;;10285820;28;20092;-64
2023/12/23 15:24:53;;;;;;;11.32;6.28;;;;;;;;;;10274532;28;20541;-63
2023/12/23 15:29:56;;;;;;;8.68;6.60;;;;;;;;;;10290190;28;20027;-63
2023/12/23 15:34:57;;;;;;;10.77;6.35;;;;;;;;;;10292735;28;20467;-65
2023/12/23 15:39:57;;;;;;;14.13;7.20;;;;;;;;;;10292576;28;20035;-63
2023/12/23 15:44:58;;;;;;;10.65;7.40;;;;;;;;;;10269819;28;20078;-64
2023/12/23 15:49:58;;;;;;;11.05;6.90;;;;;;;;;;10269132;28;20030;-63
2023/12/23 15:54:59;;;;;;;11.48;6.93;;;;;;;;;;10268501;28;20169;-64
2023/12/23 16:00:00;;;;;;;9.65;6.93;;;;;;;;;;10272540;28;20167;-63
2023/12/23 16:05:01;;;;;;;18.65;6.63;;;;;;;;;;10287879;28;20070;-63
2023/12/23 16:10:03;;;;;;;12.10;7.28;;;;;;;;;;10291052;28;20031;-63
2023/12/23 16:15:04;;;;;;;11.65;7.50;;;;;;;;;;10291604;28;20252;-63
2023/12/23 16:20:06;;;;;;;13.88;7.78;;;;;;;;;;10290948;28;20031;-63
2023/12/23 16:25:10;;;;;;;10.60;6.97;;;;;;;;;;10291212;28;20038;-63
2023/12/23 16:30:11;;;;;;;13.30;7.80;;;;;;;;;;10285230;28;20414;-65
2023/12/23 16:35:11;;;;;;;11.93;7.13;;;;;;;;;;10290317;28;20081;-63
2023/12/23 16:40:12;;;;;;;11.35;7.45;;;;;;;;;;10274478;28;20053;-63
2023/12/23 16:45:15;;;;;;;14.68;7.90;;;;;;;;;;10272816;28;20081;-63
2023/12/23 16:50:16;;;;;;;11.80;8.27;;;;;;;;;;10287235;28;20027;-63
2023/12/23 16:55:16;;;;;;;15.65;7.28;;;;;;;;;;10268109;28;20031;-63
2023/12/23 17:00:17;;;;;;;13.55;7.90;;;;;;;;;;10264640;28;20057;-63
2023/12/23 17:05:19;;;;;;;9.90;7.68;;;;;;;;;;10263933;28;20031;-63
2023/12/23 17:10:19;;;;;;;10.85;7.65;;;;;;;;;;10281870;28;20027;-63
2023/12/23 17:15:20;;;;;;;11.15;7.57;;;;;;;;;;10271187;28;20030;-63
2023/12/23 17:20:21;;;;;;;16.30;7.57;;;;;;;;;;10279420;28;20038;-63
2023/12/23 17:25:21;;;;;;;10.32;7.78;;;;;;;;;;10264402;28;20038;-63
2023/12/23 17:30:22;;;;;;;14.07;8.32;;;;;;;;;;10264678;28;20034;-63
2023/12/23 17:35:25;;;;;;;9.20;6.95;;;;;;;;;;10263637;28;20030;-63
2023/12/23 17:40:26;;;;;;;11.60;6.65;;;;;;;;;;10269958;28;20057;-63
2023/12/23 17:45:26;;;;;;;9.63;7.30;;;;;;;;;;10253647;28;20078;-63
2023/12/23 17:50:28;;;;;;;13.43;7.57;;;;;;;;;;10283858;28;20031;-63
2023/12/23 17:55:29;;;;;;;12.00;7.03;;;;;;;;;;10281974;28;20465;-63
2023/12/23 18:00:29;;;;;;;9.38;6.85;;;;;;;;;;10285328;28;20046;-63
2023/12/23 18:05:30;;;;;;;11.10;7.05;;;;;;;;;;10283967;28;20023;-63
2023/12/23 18:10:31;;;;;;;9.73;7.13;;;;;;;;;;10283727;28;20443;-64
2023/12/23 18:15:31;;;;;;;7.47;6.15;;;;;;;;;;10279862;28;20027;-64
2023/12/23 18:20:32;;;;;;;9.80;6.80;;;;;;;;;;10284320;28;20039;-63
2023/12/23 18:25:33;;;;;;;9.18;6.18;;;;;;;;;;10279945;28;20027;-63
2023/12/23 18:30:33;;;;;;;9.48;6.68;;;;;;;;;;10278896;28;20027;-64
2023/12/23 18:35:34;;;;;;;8.38;6.32;;;;;;;;;;10257802;28;20425;-64
2023/12/23 18:40:37;;;;;;;13.70;7.15;;;;;;;;;;10274023;28;20039;-65
2023/12/23 18:45:37;;;;;;;10.07;7.13;;;;;;;;;;10278504;28;20035;-65
2023/12/23 18:50:39;;;;;;;10.82;7.07;;;;;;;;;;10275074;28;20077;-66
2023/12/23 18:55:40;;;;;;;10.40;7.47;;;;;;;;;;10288278;28;20031;-66
2023/12/23 19:00:41;;;;;;;11.35;8.27;;;;;;;;;;10289682;28;20051;-66
2023/12/23 19:05:41;;;;;;;17.08;8.50;;;;;;;;;;10278281;28;20092;-65
2023/12/23 19:10:44;;;;;;;13.43;8.63;;;;;;;;;;10278907;28;20118;-64
2023/12/23 19:15:45;;;;;;;12.43;8.65;;;;;;;;;;10286205;28;20019;-65
2023/12/23 19:20:46;;;;;;;13.27;9.77;;;;;;;;;;10290327;28;20034;-66
2023/12/23 19:25:46;;;;;;;11.27;8.63;;;;;;;;;;10278681;28;20022;-65
2023/12/23 19:30:47;;;;;;;10.18;8.07;;;;;;;;;;10281651;28;20031;-65
2023/12/23 19:35:47;;;;;;;13.18;8.57;;;;;;;;;;10284298;28;20031;-65
2023/12/23 19:40:48;;;;;;;10.45;7.97;;;;;;;;;;10279150;28;20073;-65
2023/12/23 19:45:49;;;;;;;12.20;8.43;;;;;;;;;;10274514;28;20023;-67
2023/12/23 19:50:50;;;;;;;19.35;9.55;;;;;;;;;;10283275;28;20035;-63
2023/12/23 19:55:51;;;;;;;32.50;10.00;;;;;;;;;;10290918;28;20031;-64
2023/12/23 20:00:51;;;;;;;20.77;11.68;;;;;;;;;;10289038;28;20062;-64
2023/12/23 20:05:52;;;;;;;18.50;11.48;;;;;;;;;;10289482;28;20039;-63
2023/12/23 20:10:52;;;;;;;17.98;10.98;;;;;;;;;;10280762;28;20363;-63
2023/12/23 20:15:53;;;;;;;20.63;12.63;;;;;;;;;;10285148;28;20093;-63
2023/12/23 20:20:54;;;;;;;24.40;12.18;;;;;;;;;;10289812;28;20023;-63
2023/12/23 20:25:54;;;;;;;19.90;12.35;;;;;;;;;;10289685;28;20031;-64
2023/12/23 20:30:55;;;;;;;15.73;11.07;;;;;;;;;;10279627;28;20043;-63
2023/12/23 20:35:55;;;;;;;20.02;11.73;;;;;;;;;;10284369;28;20034;-63
2023/12/23 20:40:58;;;;;;;18.05;11.90;;;;;;;;;;10287752;28;20459;-64
2023/12/23 20:45:59;;;;;;;22.42;11.43;;;;;;;;;;10283609;28;20031;-64
2023/12/23 20:50:59;;;;;;;19.60;11.40;;;;;;;;;;10288293;28;20467;-64
2023/12/23 20:56:00;;;;;;;19.52;11.00;;;;;;;;;;10289721;28;20077;-63
2023/12/23 21:01:01;;;;;;;20.13;11.32;;;;;;;;;;10288109;28;20058;-63
2023/12/23 21:06:01;;;;;;;15.48;11.60;;;;;;;;;;10289380;28;20038;-64
2023/12/23 21:11:02;;;;;;;19.60;10.88;;;;;;;;;;10287611;28;20031;-68
2023/12/23 21:16:03;;;;;;;18.73;12.10;;;;;;;;;;10278943;28;20031;-64
2023/12/23 21:21:04;;;;;;;16.13;11.45;;;;;;;;;;10282182;28;20088;-65
2023/12/23 21:26:05;;;;;;;21.10;13.18;;;;;;;;;;10285770;28;20371;-65
2023/12/23 21:31:06;;;;;;;17.90;12.85;;;;;;;;;;10286980;28;20031;-68
2023/12/23 21:36:07;;;;;;;26.70;14.65;;;;;;;;;;10284841;28;20026;-63
2023/12/23 21:41:07;;;;;;;25.33;13.98;;;;;;;;;;10280857;28;20540;-63
2023/12/23 21:46:08;;;;;;;25.83;14.13;;;;;;;;;;10287210;28;20027;-63
2023/12/23 21:51:09;;;;;;;23.23;13.55;;;;;;;;;;10284901;28;20035;-64
2023/12/23 21:56:10;;;;;;;24.42;14.00;;;;;;;;;;10286435;28;20442;-64
2023/12/23 22:01:12;;;;;;;23.98;14.82;;;;;;;;;;10286729;28;20053;-63
2023/12/23 22:06:12;;;;;;;26.67;14.73;;;;;;;;;;10287002;28;20027;-63
2023/12/23 22:11:13;;;;;;;21.20;14.00;;;;;;;;;;10284621;28;20030;-63
2023/12/23 22:16:14;;;;;;;20.90;13.82;;;;;;;;;;10287411;28;20031;-64
2023/12/23 22:21:14;;;;;;;22.15;14.07;;;;;;;;;;10286256;28;20294;-63
2023/12/23 22:26:16;;;;;;;20.58;14.13;;;;;;;;;;10284934;28;20101;-63
2023/12/23 22:31:17;;;;;;;26.25;15.88;;;;;;;;;;10285991;28;20039;-63
2023/12/23 22:36:19;;;;;;;22.70;14.70;;;;;;;;;;10286413;28;20023;-63
2023/12/23 22:41:20;;;;;;;19.08;13.32;;;;;;;;;;10286056;28;20026;-63
2023/12/23 22:46:21;;;;;;;23.25;14.95;;;;;;;;;;10285082;28;20026;-63
2023/12/23 22:51:21;;;;;;;21.83;13.65;;;;;;;;;;10277969;28;20062;-63
2023/12/23 22:56:22;;;;;;;20.20;14.73;;;;;;;;;;10283709;28;20085;-63
2023/12/23 23:01:22;;;;;;;20.98;14.52;;;;;;;;;;10271973;28;20058;-63
2023/12/23 23:06:23;;;;;;;17.88;13.45;;;;;;;;;;10278477;28;20026;-63
2023/12/23 23:11:24;;;;;;;21.35;14.20;;;;;;;;;;10278085;28;20047;-62
2023/12/23 23:16:24;;;;;;;20.27;13.98;;;;;;;;;;10271549;28;20023;-64
2023/12/23 23:21:25;;;;;;;22.80;13.90;;;;;;;;;;10274349;28;20090;-64
2023/12/23 23:26:26;;;;;;;20.27;15.05;;;;;;;;;;10269524;28;20031;-63
2023/12/23 23:31:26;;;;;;;23.95;15.77;;;;;;;;;;10283960;28;20089;-63
2023/12/23 23:36:27;;;;;;;23.58;15.88;;;;;;;;;;10283296;28;20043;-64
2023/12/23 23:41:27;;;;;;;28.25;16.00;;;;;;;;;;10284846;28;20035;-63
2023/12/23 23:46:28;;;;;;;26.00;16.35;;;;;;;;;;10274989;28;20027;-65
2023/12/23 23:51:29;;;;;;;24.33;16.15;;;;;;;;;;10270563;28;20023;-64
2023/12/23 23:56:29;;;;;;;22.52;14.55;;;;;;;;;;10268720;28;20101;-67
